createdAt,value
2022-08-22T00:00:22.713Z,101418.11
2022-08-22T00:02:49.418Z,101383.84
2022-08-22T00:03:00.125Z,101352.23
2022-08-22T00:03:30.115Z,101417.59
2022-08-22T00:06:42.180Z,101414.77
2022-08-22T00:09:29.828Z,101392.56
2022-08-22T00:12:04.149Z,101410.95
2022-08-22T00:14:41.519Z,101415.76
2022-08-22T00:17:20.408Z,101413.39
2022-08-22T00:20:18.985Z,101409.80
2022-08-22T00:23:03.564Z,101412.63
2022-08-22T00:25:50.311Z,101411.22
2022-08-22T00:28:25.359Z,101414.77
2022-08-22T00:31:32.171Z,101413.79
2022-08-22T00:34:06.191Z,101412.50
2022-08-22T00:36:47.737Z,101411.95
2022-08-22T00:39:21.972Z,101415.49
2022-08-22T00:42:02.722Z,101412.52
2022-08-22T00:45:14.195Z,101411.70
2022-08-22T00:47:57.099Z,101415.76
2022-08-22T00:50:40.339Z,101415.02
2022-08-22T00:53:30.857Z,101397.50
2022-08-22T00:56:20.599Z,101417.52
2022-08-22T00:59:25.937Z,101419.81
2022-08-22T01:02:02.996Z,101420.89
2022-08-22T01:04:33.992Z,101420.03
2022-08-22T01:07:38.271Z,101403.61
2022-08-22T01:10:24.991Z,101422.84
2022-08-22T01:13:15.246Z,101419.38
2022-08-22T01:15:44.996Z,101419.25
2022-08-22T01:18:30.235Z,101420.55
2022-08-22T01:21:37.115Z,101424.80
2022-08-22T01:24:24.129Z,101431.08
2022-08-22T01:27:23.063Z,101429.30
2022-08-22T01:29:53.886Z,101432.81
2022-08-22T01:32:31.332Z,101433.73
2022-08-22T01:35:26.889Z,101433.64
2022-08-22T01:38:03.841Z,101435.21
2022-08-22T01:40:53.594Z,101437.57
2022-08-22T01:43:59.150Z,101434.84
2022-08-22T01:46:49.300Z,101435.92
2022-08-22T01:49:29.847Z,101430.83
2022-08-22T01:52:13.615Z,101431.02
2022-08-22T01:54:43.040Z,101433.20
2022-08-22T01:57:13.007Z,101435.60
2022-08-22T01:59:46.241Z,101442.08
2022-08-22T02:02:26.620Z,101439.27
2022-08-22T02:05:21.788Z,101436.92
2022-08-22T02:07:56.271Z,101436.95
2022-08-22T02:10:42.720Z,101438.50
2022-08-22T02:13:13.653Z,101424.45
2022-08-22T02:15:41.867Z,101445.29
2022-08-22T02:18:23.188Z,101443.34
2022-08-22T02:21:03.451Z,101440.33
2022-08-22T02:23:56.231Z,101442.71
2022-08-22T02:27:05.291Z,101439.00
2022-08-22T02:29:50.592Z,101430.88
2022-08-22T02:32:46.033Z,101426.76
2022-08-22T02:35:29.180Z,101427.64
2022-08-22T02:38:19.227Z,101431.52
2022-08-22T02:41:24.116Z,101433.62
2022-08-22T02:44:19.183Z,101437.83
2022-08-22T02:47:01.018Z,101437.50
2022-08-22T02:49:35.091Z,101439.27
2022-08-22T02:52:33.995Z,101438.92
2022-08-22T02:55:06.769Z,101440.66
2022-08-22T02:57:40.546Z,101438.02
2022-08-22T03:00:31.844Z,101439.69
2022-08-22T03:03:06.901Z,101444.90
2022-08-22T03:05:37.843Z,101443.86
2022-08-22T03:08:17.363Z,101443.34
2022-08-22T03:10:56.644Z,101443.34
2022-08-22T03:13:40.243Z,101424.25
2022-08-22T03:16:15.515Z,101437.50
2022-08-22T03:18:47.362Z,101437.65
2022-08-22T03:21:41.487Z,101438.85
2022-08-22T03:24:35.574Z,101436.06
2022-08-22T03:27:31.400Z,101423.48
2022-08-22T03:30:11.599Z,101439.81
2022-08-22T03:32:56.846Z,101442.46
2022-08-22T03:35:51.109Z,101446.10
2022-08-22T03:38:19.042Z,101435.87
2022-08-22T03:41:13.301Z,101443.08
2022-08-22T03:43:54.487Z,101445.44
2022-08-22T03:46:25.540Z,101445.23
2022-08-22T03:49:02.253Z,101446.35
2022-08-22T03:51:32.933Z,101447.65
2022-08-22T03:54:06.742Z,101441.79
2022-08-22T03:56:44.487Z,101443.31
2022-08-22T03:59:44.520Z,101444.41
2022-08-22T04:02:44.406Z,101447.59
2022-08-22T04:05:16.223Z,101452.15
2022-08-22T04:08:02.872Z,101453.39
2022-08-22T04:10:58.525Z,101458.81
2022-08-22T04:13:48.854Z,101462.55
2022-08-22T04:16:41.612Z,101463.23
2022-08-22T04:19:31.385Z,101462.05
2022-08-22T04:22:33.598Z,101468.11
2022-08-22T04:25:31.229Z,101466.61
2022-08-22T04:28:25.660Z,101472.96
2022-08-22T04:31:06.660Z,101473.09
2022-08-22T04:33:53.565Z,101469.73
2022-08-22T04:36:32.640Z,101468.11
2022-08-22T04:39:12.526Z,101467.65
2022-08-22T04:41:52.112Z,101467.58
2022-08-22T04:44:30.158Z,101467.75
2022-08-22T04:47:06.552Z,101454.11
2022-08-22T04:49:45.088Z,101468.59
2022-08-22T04:52:29.545Z,101466.55
2022-08-22T04:55:23.142Z,101467.16
2022-08-22T04:58:06.567Z,101468.60
2022-08-22T05:00:43.022Z,101465.70
2022-08-22T05:03:16.805Z,101463.80
2022-08-22T05:05:47.593Z,101470.04
2022-08-22T05:08:22.094Z,101465.33
2022-08-22T05:10:51.965Z,101469.42
2022-08-22T05:13:43.270Z,101470.02
2022-08-22T05:16:16.395Z,101471.42
2022-08-22T05:18:49.931Z,101479.14
2022-08-22T05:21:20.885Z,101475.66
2022-08-22T05:24:03.600Z,101478.48
2022-08-22T05:26:38.801Z,101471.85
2022-08-22T05:29:09.866Z,101487.45
2022-08-22T05:31:54.661Z,101488.53
2022-08-22T05:34:28.557Z,101489.69
2022-08-22T05:37:03.062Z,101486.71
2022-08-22T05:39:32.234Z,101489.72
2022-08-22T05:42:03.749Z,101490.31
2022-08-22T05:44:35.104Z,101494.20
2022-08-22T05:47:35.357Z,101499.15
2022-08-22T05:50:16.218Z,101505.69
2022-08-22T05:52:59.253Z,101507.02
2022-08-22T05:55:30.286Z,101506.55
2022-08-22T05:58:26.130Z,101505.36
2022-08-22T06:01:07.462Z,101507.04
2022-08-22T06:03:47.668Z,101486.94
2022-08-22T06:06:18.439Z,101502.48
2022-08-22T06:09:01.705Z,101504.68
2022-08-22T06:11:45.342Z,101499.18
2022-08-22T06:14:31.345Z,101499.77
2022-08-22T06:17:10.413Z,101502.14
2022-08-22T06:19:44.249Z,101500.21
2022-08-22T06:22:19.617Z,101503.94
2022-08-22T06:24:50.328Z,101486.83
2022-08-22T06:27:23.249Z,101505.61
2022-08-22T06:29:58.053Z,101507.30
2022-08-22T06:32:58.435Z,101511.70
2022-08-22T06:35:51.377Z,101507.67
2022-08-22T06:38:21.661Z,101508.58
2022-08-22T06:40:54.582Z,101510.73
2022-08-22T06:43:25.097Z,101515.09
2022-08-22T06:45:53.709Z,101516.41
2022-08-22T06:48:24.405Z,101520.92
2022-08-22T06:50:58.732Z,101522.55
2022-08-22T06:53:45.911Z,101527.23
2022-08-22T06:56:44.454Z,101530.30
2022-08-22T06:59:17.006Z,101530.70
2022-08-22T07:01:54.631Z,101532.66
2022-08-22T07:04:26.829Z,101537.60
2022-08-22T07:06:59.145Z,101537.89
2022-08-22T07:09:30.896Z,101535.93
2022-08-22T07:12:02.958Z,101538.04
2022-08-22T07:14:44.418Z,101542.94
2022-08-22T07:17:22.266Z,101540.84
2022-08-22T07:20:05.024Z,101539.97
2022-08-22T07:22:36.510Z,101541.05
2022-08-22T07:25:14.978Z,101541.68
2022-08-22T07:28:18.280Z,101538.03
2022-08-22T07:31:03.925Z,101539.63
2022-08-22T07:33:44.320Z,101539.63
2022-08-22T07:36:36.056Z,101538.02
2022-08-22T07:39:24.575Z,101542.83
2022-08-22T07:42:14.656Z,101531.73
2022-08-22T07:44:57.767Z,101540.61
2022-08-22T07:47:35.054Z,101541.90
2022-08-22T07:50:07.512Z,101545.45
2022-08-22T07:52:42.524Z,101546.20
2022-08-22T07:55:26.115Z,101545.64
2022-08-22T07:58:04.100Z,101547.38
2022-08-22T08:00:32.877Z,101548.16
2022-08-22T08:03:08.851Z,101547.07
2022-08-22T08:05:41.530Z,101547.10
2022-08-22T08:08:23.581Z,101548.73
2022-08-22T08:10:54.734Z,101548.27
2022-08-22T08:13:44.078Z,101544.55
2022-08-22T08:16:19.832Z,101543.84
2022-08-22T08:18:51.034Z,101543.89
2022-08-22T08:21:29.944Z,101540.64
2022-08-22T08:24:00.940Z,101544.15
2022-08-22T08:27:00.090Z,101541.00
2022-08-22T08:29:29.014Z,101540.13
2022-08-22T08:31:58.654Z,101542.01
2022-08-22T08:34:28.666Z,101543.27
2022-08-22T08:37:07.054Z,101544.30
2022-08-22T08:39:39.358Z,101545.19
2022-08-22T08:42:23.582Z,101548.94
2022-08-22T08:45:30.095Z,101544.36
2022-08-22T08:48:01.275Z,101549.13
2022-08-22T08:50:55.258Z,101547.40
2022-08-22T08:53:43.339Z,101550.11
2022-08-22T08:56:35.669Z,101554.00
2022-08-22T08:59:22.734Z,101551.10
2022-08-22T09:02:02.799Z,101546.45
2022-08-22T09:04:43.065Z,101530.02
2022-08-22T09:07:26.197Z,101542.21
2022-08-22T09:10:09.080Z,101541.22
2022-08-22T09:12:37.125Z,101544.80
2022-08-22T09:16:02.370Z,101538.96
2022-08-22T09:18:43.104Z,101543.23
2022-08-22T09:21:41.716Z,101545.34
2022-08-22T09:24:43.848Z,101544.44
2022-08-22T09:27:30.965Z,101543.22
2022-08-22T09:30:16.756Z,101542.39
2022-08-22T09:32:44.904Z,101543.27
2022-08-22T09:35:26.320Z,101546.71
2022-08-22T09:38:18.337Z,101545.32
2022-08-22T09:41:13.807Z,101547.23
2022-08-22T09:43:54.372Z,101547.79
2022-08-22T09:46:31.579Z,101549.73
2022-08-22T09:49:17.538Z,101548.92
2022-08-22T09:52:14.385Z,101547.38
2022-08-22T09:55:16.968Z,101543.63
2022-08-22T09:57:59.823Z,101542.48
2022-08-22T10:00:38.446Z,101546.73
2022-08-22T10:03:33.786Z,101549.08
2022-08-22T10:06:15.298Z,101547.29
2022-08-22T10:08:53.948Z,101546.77
2022-08-22T10:11:27.061Z,101547.88
2022-08-22T10:14:22.359Z,101545.02
2022-08-22T10:17:43.355Z,101549.70
2022-08-22T10:20:30.655Z,101546.35
2022-08-22T10:23:26.476Z,101547.98
2022-08-22T10:26:10.219Z,101550.20
2022-08-22T10:28:55.847Z,101548.01
2022-08-22T10:31:59.039Z,101549.32
2022-08-22T10:34:34.713Z,101553.95
2022-08-22T10:37:36.950Z,101553.14
2022-08-22T10:40:13.303Z,101552.20
2022-08-22T10:42:59.202Z,101556.90
2022-08-22T10:45:36.428Z,101549.58
2022-08-22T10:48:05.050Z,101558.69
2022-08-22T10:50:43.747Z,101558.96
2022-08-22T10:53:36.213Z,101560.27
2022-08-22T10:56:07.426Z,101559.89
2022-08-22T10:58:49.120Z,101560.64
2022-08-22T11:01:37.980Z,101559.08
2022-08-22T11:04:35.594Z,101563.83
2022-08-22T11:07:12.512Z,101564.05
2022-08-22T11:09:43.783Z,101562.73
2022-08-22T11:12:20.783Z,101565.60
2022-08-22T11:15:28.292Z,101567.50
2022-08-22T11:18:33.830Z,101568.89
2022-08-22T11:21:15.307Z,101570.28
2022-08-22T11:24:06.554Z,101568.52
2022-08-22T11:26:58.812Z,101567.61
2022-08-22T11:29:55.364Z,101568.96
2022-08-22T11:32:32.068Z,101562.13
2022-08-22T11:35:32.371Z,101564.17
2022-08-22T11:38:32.635Z,101563.25
2022-08-22T11:41:23.170Z,101563.98
2022-08-22T11:44:03.541Z,101565.16
2022-08-22T11:46:31.825Z,101562.88
2022-08-22T11:49:37.078Z,101559.70
2022-08-22T11:52:30.754Z,101559.66
2022-08-22T11:55:18.478Z,101557.50
2022-08-22T11:57:51.256Z,101558.30
2022-08-22T12:00:29.936Z,101559.55
2022-08-22T12:03:23.274Z,101562.80
2022-08-22T12:06:01.528Z,101569.46
2022-08-22T12:08:29.577Z,101570.91
2022-08-22T12:11:16.196Z,101572.63
2022-08-22T12:14:06.455Z,101571.30
2022-08-22T12:16:49.862Z,101569.24
2022-08-22T12:19:23.041Z,101566.27
2022-08-22T12:22:28.846Z,101564.48
2022-08-22T12:25:06.239Z,101548.45
2022-08-22T12:27:48.259Z,101565.08
2022-08-22T12:30:37.633Z,101565.58
2022-08-22T12:33:21.971Z,101574.29
2022-08-22T12:36:21.458Z,101567.58
2022-08-22T12:38:58.487Z,101565.61
2022-08-22T12:42:04.072Z,101568.05
2022-08-22T12:44:50.858Z,101562.52
2022-08-22T12:47:37.473Z,101561.77
2022-08-22T12:50:17.307Z,101555.82
2022-08-22T12:53:00.601Z,101557.63
2022-08-22T12:55:28.785Z,101551.65
2022-08-22T12:58:30.549Z,101554.89
2022-08-22T13:01:06.470Z,101555.29
2022-08-22T13:03:56.968Z,101554.90
2022-08-22T13:06:34.140Z,101560.11
2022-08-22T13:09:43.276Z,101559.55
2022-08-22T13:12:33.239Z,101561.52
2022-08-22T13:15:38.890Z,101561.60
2022-08-22T13:18:30.574Z,101560.48
2022-08-22T13:21:04.388Z,101567.73
2022-08-22T13:23:42.244Z,101564.80
2022-08-22T13:26:16.319Z,101568.67
2022-08-22T13:32:01.993Z,101572.67
2022-08-22T13:34:30.299Z,101577.77
2022-08-22T13:37:01.288Z,101577.92
2022-08-22T13:39:35.769Z,101580.97
2022-08-22T13:42:14.155Z,101584.00
2022-08-22T13:44:49.530Z,101579.02
2022-08-22T13:47:21.819Z,101577.58
2022-08-22T13:50:04.202Z,101580.15
2022-08-22T13:52:38.108Z,101580.48
2022-08-22T13:55:38.870Z,101579.80
2022-08-22T13:58:16.975Z,101582.70
2022-08-22T14:01:17.551Z,101579.29
2022-08-22T14:03:49.071Z,101580.08
2022-08-22T14:06:37.550Z,101581.53
2022-08-22T14:09:34.910Z,101576.33
2022-08-22T14:12:33.472Z,101574.01
2022-08-22T14:15:08.001Z,101574.06
2022-08-22T14:17:48.910Z,101576.25
2022-08-22T14:20:32.359Z,101574.88
2022-08-22T14:23:26.932Z,101571.09
2022-08-22T14:25:56.399Z,101571.64
2022-08-22T14:28:32.469Z,101567.78
2022-08-22T14:31:13.563Z,101569.69
2022-08-22T14:33:47.649Z,101573.66
2022-08-22T14:36:53.337Z,101577.17
2022-08-22T14:39:43.791Z,101574.14
2022-08-22T14:42:23.569Z,101573.77
2022-08-22T14:45:08.641Z,101570.14
2022-08-22T14:48:29.618Z,101570.11
2022-08-22T14:51:08.476Z,101564.63
2022-08-22T14:53:40.436Z,101567.17
2022-08-22T14:56:13.813Z,101565.29
2022-08-22T14:58:47.847Z,101560.85
2022-08-22T15:01:21.693Z,101563.10
2022-08-22T15:03:59.301Z,101561.61
2022-08-22T15:06:37.656Z,101563.05
2022-08-22T15:09:26.894Z,101562.84
2022-08-22T15:11:55.207Z,101560.47
2022-08-22T15:14:30.387Z,101562.42
2022-08-22T15:17:02.736Z,101557.44
2022-08-22T15:19:34.291Z,101561.23
2022-08-22T15:22:15.211Z,101560.36
2022-08-22T15:24:49.199Z,101554.89
2022-08-22T15:27:20.058Z,101554.60
2022-08-22T15:29:52.473Z,101558.09
2022-08-22T15:32:22.034Z,101558.98
2022-08-22T15:34:52.522Z,101559.58
2022-08-22T15:37:20.592Z,101560.79
2022-08-22T15:40:08.448Z,101561.18
2022-08-22T15:42:45.606Z,101564.35
2022-08-22T15:45:40.611Z,101564.05
2022-08-22T15:48:31.301Z,101555.02
2022-08-22T15:51:10.507Z,101570.71
2022-08-22T15:53:44.848Z,101568.05
2022-08-22T15:56:12.918Z,101567.61
2022-08-22T15:58:49.075Z,101562.86
2022-08-22T16:01:24.316Z,101565.16
2022-08-22T16:04:06.670Z,101560.88
2022-08-22T16:06:51.319Z,101563.76
2022-08-22T16:09:36.475Z,101558.94
2022-08-22T16:12:11.780Z,101556.05
2022-08-22T16:14:42.899Z,101555.69
2022-08-22T16:17:42.530Z,101552.57
2022-08-22T16:20:19.460Z,101547.57
2022-08-22T16:22:57.252Z,101539.39
2022-08-22T16:25:47.588Z,101540.39
2022-08-22T16:28:56.349Z,101531.80
2022-08-22T16:31:39.843Z,101526.43
2022-08-22T16:34:17.162Z,101522.17
2022-08-22T16:37:23.294Z,101518.38
2022-08-22T16:40:13.092Z,101516.63
2022-08-22T16:43:05.263Z,101514.73
2022-08-22T16:45:37.849Z,101513.30
2022-08-22T16:48:33.076Z,101516.31
2022-08-22T16:51:14.216Z,101514.17
2022-08-22T16:54:09.135Z,101516.80
2022-08-22T16:57:07.771Z,101526.34
2022-08-22T16:59:52.094Z,101530.59
2022-08-22T17:02:57.305Z,101540.14
2022-08-22T17:05:45.679Z,101549.09
2022-08-22T17:08:50.799Z,101551.61
2022-08-22T17:11:40.471Z,101554.52
2022-08-22T17:14:28.455Z,101553.20
2022-08-22T17:17:25.054Z,101543.33
2022-08-22T17:19:53.103Z,101561.30
2022-08-22T17:22:48.499Z,101554.69
2022-08-22T17:25:16.548Z,101551.80
2022-08-22T17:27:51.874Z,101554.83
2022-08-22T17:30:44.772Z,101553.61
2022-08-22T17:33:27.883Z,101557.46
2022-08-22T17:36:26.322Z,101564.94
2022-08-22T17:39:15.626Z,101568.38
2022-08-22T17:41:52.937Z,101574.23
2022-08-22T17:44:47.430Z,101574.45
2022-08-22T17:47:24.223Z,101574.50
2022-08-22T17:50:02.219Z,101585.44
2022-08-22T17:52:54.598Z,101590.19
2022-08-22T17:55:32.708Z,101597.06
2022-08-22T17:58:12.778Z,101602.44
2022-08-22T18:01:11.452Z,101603.27
2022-08-22T18:03:49.474Z,101605.52
2022-08-22T18:06:18.095Z,101605.73
2022-08-22T18:09:13.609Z,101610.43
2022-08-22T18:11:56.503Z,101607.98
2022-08-22T18:14:24.757Z,101608.22
2022-08-22T18:16:55.419Z,101612.27
2022-08-22T18:19:23.802Z,101610.48
2022-08-22T18:21:56.474Z,101610.09
2022-08-22T18:24:31.273Z,101611.19
2022-08-22T18:27:30.056Z,101613.90
2022-08-22T18:30:06.382Z,101612.33
2022-08-22T18:32:46.134Z,101614.23
2022-08-22T18:35:20.918Z,101619.20
2022-08-22T18:37:50.051Z,101626.84
2022-08-22T18:40:36.785Z,101630.39
2022-08-22T18:43:38.067Z,101630.30
2022-08-22T18:46:31.939Z,101632.22
2022-08-22T18:49:15.504Z,101627.27
2022-08-22T18:51:44.351Z,101624.64
2022-08-22T18:54:12.579Z,101624.23
2022-08-22T18:57:19.295Z,101616.05
2022-08-22T18:59:57.526Z,101614.10
2022-08-22T19:03:07.934Z,101610.52
2022-08-22T19:05:57.232Z,101615.04
2022-08-22T19:08:34.741Z,101619.36
2022-08-22T19:11:21.301Z,101619.48
2022-08-22T19:14:03.234Z,101618.85
2022-08-22T19:16:52.966Z,101615.36
2022-08-22T19:20:01.278Z,101618.30
2022-08-22T19:22:36.012Z,101619.29
2022-08-22T19:25:18.617Z,101617.48
2022-08-22T19:28:14.342Z,101613.35
2022-08-22T19:30:48.807Z,101613.84
2022-08-22T19:33:34.307Z,101612.36
2022-08-22T19:36:12.955Z,101612.97
2022-08-22T19:38:53.004Z,101615.23
2022-08-22T19:41:49.290Z,101607.81
2022-08-22T19:44:20.168Z,101609.17
2022-08-22T19:47:00.408Z,101606.48
2022-08-22T19:50:15.911Z,101606.11
2022-08-22T19:53:03.406Z,101602.05
2022-08-22T19:55:37.480Z,101602.66
2022-08-22T19:58:09.339Z,101603.27
2022-08-22T20:00:53.344Z,101598.94
2022-08-22T20:03:50.832Z,101599.05
2022-08-22T20:06:44.317Z,101592.48
2022-08-22T20:09:19.409Z,101590.55
2022-08-22T20:11:59.733Z,101597.29
2022-08-22T20:14:35.029Z,101597.80
2022-08-22T20:17:26.865Z,101595.89
2022-08-22T20:22:52.895Z,101591.95
2022-08-22T20:25:42.899Z,101591.15
2022-08-22T20:28:31.088Z,101589.60
2022-08-22T20:31:02.344Z,101591.44
2022-08-22T20:33:38.452Z,101587.61
2022-08-22T20:36:27.509Z,101586.80
2022-08-22T20:39:10.988Z,101589.09
2022-08-22T20:41:46.305Z,101589.52
2022-08-22T20:44:20.909Z,101577.95
2022-08-22T20:46:53.844Z,101593.89
2022-08-22T20:49:32.830Z,101586.98
2022-08-22T20:52:03.016Z,101585.61
2022-08-22T20:54:38.104Z,101569.58
2022-08-22T20:57:19.373Z,101583.42
2022-08-22T20:59:58.191Z,101582.86
2022-08-22T21:02:26.236Z,101582.24
2022-08-22T21:05:00.362Z,101586.95
2022-08-22T21:07:34.984Z,101592.73
2022-08-22T21:10:25.919Z,101597.27
2022-08-22T21:13:02.852Z,101604.77
2022-08-22T21:15:33.435Z,101609.22
2022-08-22T21:18:02.069Z,101608.24
2022-08-22T21:20:34.692Z,101605.00
2022-08-22T21:23:05.896Z,101602.74
2022-08-22T21:26:07.622Z,101600.23
2022-08-22T21:28:40.902Z,101598.59
2022-08-22T21:31:20.998Z,101600.83
2022-08-22T21:33:51.807Z,101597.58
2022-08-22T21:36:25.800Z,101598.52
2022-08-22T21:39:03.780Z,101595.30
2022-08-22T21:41:38.550Z,101591.08
2022-08-22T21:44:24.894Z,101586.98
2022-08-22T21:46:53.650Z,101590.75
2022-08-22T21:49:30.011Z,101588.80
2022-08-22T21:51:58.129Z,101582.48
2022-08-22T21:54:26.216Z,101576.96
2022-08-22T21:56:57.630Z,101570.30
2022-08-22T21:59:52.177Z,101565.56
2022-08-22T22:02:36.506Z,101562.04
2022-08-22T22:05:13.201Z,101561.65
2022-08-22T22:07:43.015Z,101559.02
2022-08-22T22:10:13.870Z,101556.09
2022-08-22T22:12:44.326Z,101551.48
2022-08-22T22:15:15.942Z,101554.50
2022-08-22T22:17:44.466Z,101558.67
2022-08-22T22:20:16.328Z,101558.26
2022-08-22T22:22:46.463Z,101560.70
2022-08-22T22:25:41.323Z,101557.88
2022-08-22T22:28:25.174Z,101561.66
2022-08-22T22:30:53.592Z,101529.65
2022-08-22T22:33:25.771Z,101558.78
2022-08-22T22:35:55.945Z,101556.11
2022-08-22T22:38:24.484Z,101556.38
2022-08-22T22:40:53.053Z,101551.58
2022-08-22T22:43:21.801Z,101549.19
2022-08-22T22:45:50.114Z,101543.12
2022-08-22T22:48:24.448Z,101536.84
2022-08-22T22:50:54.045Z,101540.25
2022-08-22T22:53:33.805Z,101534.33
2022-08-22T22:56:10.057Z,101534.02
2022-08-22T22:58:41.236Z,101533.92
2022-08-22T23:01:16.279Z,101534.58
2022-08-22T23:03:45.063Z,101532.16
2022-08-22T23:06:14.324Z,101527.74
2022-08-22T23:08:42.594Z,101520.85
2022-08-22T23:11:30.603Z,101520.52
2022-08-22T23:13:58.797Z,101518.10
2022-08-22T23:16:28.573Z,101518.07
2022-08-22T23:18:56.796Z,101524.73
2022-08-22T23:21:30.175Z,101522.29
2022-08-22T23:24:00.142Z,101519.40
2022-08-22T23:26:29.572Z,101520.27
2022-08-22T23:28:58.190Z,101520.03
2022-08-22T23:31:37.223Z,101510.63
2022-08-22T23:34:13.483Z,101505.40
2022-08-22T23:36:45.527Z,101502.84
2022-08-22T23:39:14.936Z,101501.44
2022-08-22T23:41:44.692Z,101491.08
2022-08-22T23:44:17.251Z,101499.85
2022-08-22T23:46:45.523Z,101501.11
2022-08-22T23:49:15.040Z,101503.39
2022-08-22T23:51:44.469Z,101506.98
2022-08-22T23:54:13.500Z,101507.44
2022-08-22T23:56:51.364Z,101511.08
2022-08-22T23:59:22.925Z,101513.90
